< < Back
Terminal Aerodrome Forecast


Current Version              Previous Versions:   1  2  3  4  5  6  7  8  9  

Terminal Aerodrome Forecast

950
FTUS44 KOHX 022320
TAFCSV
TAF
KCSV 022320Z 0300/0324 00000KT P6SM SKC
      TEMPO 0308/0312 4SM BR
     FM031600 28006KT P6SM SCT050=

Latest METAR

959
SAUS70 KWBC 031900 RRL
MTRCSV
METAR KCSV 031853Z AUTO VRB04KT 10SM CLR 30/18 A3002 RMK AO2 SLP141
T03000178


USA.gov is the U.S. government's official web portal to all federal, state and local government web resources and services.